Leasingham, United Kingdom
Current Conditions -  °F | °C
As of 2:50 PM on Wednesday 22 Oct 2014 (Local Time) from EGYD Reporting Station
Light Rain Light Rain  
Wind Chill: 54°   Ceiling: 3400
Heat Index: 54°   Visibility: 6mi
Dew Point: 45°   Wind: 15mph
Humidity: 72%   Direction: 260°W
Pressure: 30.18"   Gusts: NA
Location:  53.03°N, 0.43°W
Report Text: EGYD 221350Z 26013KT 9999 -RA FEW029 BKN034 OVC250 12/07 Q1022 BLU TEMPO SCT022 WHT
Loading
Personal Weather Stations






























Interactive Weather Map
Tropical Storm Tracking
New forecast layout! Learn more

10-Day Weather Forecast

Advertisements
Track Severe Weather on mobile